sensor_id;sensor_type;location;lat;lon;timestamp;P1;durP1;ratioP1;P2;durP2;ratioP2
47167;SDS011;32931;47.778;17.806;2023-06-22T00:02:14;21.88;;;4.80;;
47167;SDS011;32931;47.778;17.806;2023-06-22T00:04:40;19.02;;;4.55;;
47167;SDS011;32931;47.778;17.806;2023-06-22T00:07:06;16.85;;;3.83;;
47167;SDS011;32931;47.778;17.806;2023-06-22T00:09:32;20.35;;;4.05;;
47167;SDS011;32931;47.778;17.806;2023-06-22T00:11:58;17.73;;;4.03;;
47167;SDS011;32931;47.778;17.806;2023-06-22T00:14:25;19.38;;;4.50;;
47167;SDS011;32931;47.778;17.806;2023-06-22T00:16:51;14.85;;;4.50;;
47167;SDS011;32931;47.778;17.806;2023-06-22T00:19:23;22.17;;;4.90;;
47167;SDS011;32931;47.778;17.806;2023-06-22T00:21:52;19.92;;;4.03;;
47167;SDS011;32931;47.778;17.806;2023-06-22T00:24:21;16.70;;;4.47;;
47167;SDS011;32931;47.778;17.806;2023-06-22T00:26:50;32.47;;;4.95;;
47167;SDS011;32931;47.778;17.806;2023-06-22T00:29:16;15.63;;;4.35;;
47167;SDS011;32931;47.778;17.806;2023-06-22T00:31:44;12.63;;;4.03;;
47167;SDS011;32931;47.778;17.806;2023-06-22T00:34:10;13.55;;;3.78;;
47167;SDS011;32931;47.778;17.806;2023-06-22T00:36:36;19.00;;;4.30;;
47167;SDS011;32931;47.778;17.806;2023-06-22T00:39:02;17.13;;;4.20;;
47167;SDS011;32931;47.778;17.806;2023-06-22T00:41:29;14.38;;;4.28;;
47167;SDS011;32931;47.778;17.806;2023-06-22T00:43:55;11.55;;;4.10;;
47167;SDS011;32931;47.778;17.806;2023-06-22T00:46:21;22.88;;;4.35;;
47167;SDS011;32931;47.778;17.806;2023-06-22T00:48:49;18.33;;;4.43;;
47167;SDS011;32931;47.778;17.806;2023-06-22T00:51:16;13.27;;;3.75;;
47167;SDS011;32931;47.778;17.806;2023-06-22T00:53:43;16.38;;;4.28;;
47167;SDS011;32931;47.778;17.806;2023-06-22T00:56:09;17.25;;;4.03;;
47167;SDS011;32931;47.778;17.806;2023-06-22T00:58:38;18.00;;;4.25;;
47167;SDS011;32931;47.778;17.806;2023-06-22T01:01:07;22.20;;;4.95;;
47167;SDS011;32931;47.778;17.806;2023-06-22T01:03:33;16.63;;;4.60;;
47167;SDS011;32931;47.778;17.806;2023-06-22T01:06:02;19.55;;;4.55;;
47167;SDS011;32931;47.778;17.806;2023-06-22T01:08:39;17.55;;;4.43;;
47167;SDS011;32931;47.778;17.806;2023-06-22T01:11:24;19.58;;;4.75;;
47167;SDS011;32931;47.778;17.806;2023-06-22T01:16:29;20.20;;;4.25;;
47167;SDS011;32931;47.778;17.806;2023-06-22T01:18:57;12.18;;;4.25;;
47167;SDS011;32931;47.778;17.806;2023-06-22T01:21:40;21.08;;;5.35;;
47167;SDS011;32931;47.778;17.806;2023-06-22T01:24:23;12.68;;;4.25;;
47167;SDS011;32931;47.778;17.806;2023-06-22T01:27:03;18.58;;;4.78;;
47167;SDS011;32931;47.778;17.806;2023-06-22T01:29:52;22.52;;;4.57;;
47167;SDS011;32931;47.778;17.806;2023-06-22T01:32:34;15.57;;;4.82;;
47167;SDS011;32931;47.778;17.806;2023-06-22T01:35:03;18.10;;;4.65;;
47167;SDS011;32931;47.778;17.806;2023-06-22T01:37:32;13.63;;;4.38;;
47167;SDS011;32931;47.778;17.806;2023-06-22T01:40:00;13.25;;;5.07;;
47167;SDS011;32931;47.778;17.806;2023-06-22T01:42:27;16.33;;;4.93;;
47167;SDS011;32931;47.778;17.806;2023-06-22T01:44:53;14.30;;;4.70;;
47167;SDS011;32931;47.778;17.806;2023-06-22T01:47:24;17.05;;;4.63;;
47167;SDS011;32931;47.778;17.806;2023-06-22T01:49:51;21.45;;;4.60;;
47167;SDS011;32931;47.778;17.806;2023-06-22T01:52:18;17.67;;;4.88;;
47167;SDS011;32931;47.778;17.806;2023-06-22T01:54:46;21.10;;;5.13;;
47167;SDS011;32931;47.778;17.806;2023-06-22T01:57:13;19.33;;;5.15;;
47167;SDS011;32931;47.778;17.806;2023-06-22T01:59:48;24.48;;;6.18;;
47167;SDS011;32931;47.778;17.806;2023-06-22T02:02:23;15.60;;;4.53;;
47167;SDS011;32931;47.778;17.806;2023-06-22T02:05:08;16.00;;;5.13;;
47167;SDS011;32931;47.778;17.806;2023-06-22T02:07:56;12.98;;;4.70;;
47167;SDS011;32931;47.778;17.806;2023-06-22T02:10:44;16.88;;;5.00;;
47167;SDS011;32931;47.778;17.806;2023-06-22T02:13:12;13.98;;;4.78;;
47167;SDS011;32931;47.778;17.806;2023-06-22T02:15:39;15.73;;;5.45;;
47167;SDS011;32931;47.778;17.806;2023-06-22T02:18:06;21.02;;;5.43;;
47167;SDS011;32931;47.778;17.806;2023-06-22T02:20:32;17.58;;;5.78;;
47167;SDS011;32931;47.778;17.806;2023-06-22T02:23:02;19.90;;;5.65;;
47167;SDS011;32931;47.778;17.806;2023-06-22T02:25:29;18.98;;;5.65;;
47167;SDS011;32931;47.778;17.806;2023-06-22T02:27:55;23.38;;;6.00;;
47167;SDS011;32931;47.778;17.806;2023-06-22T02:30:21;17.52;;;5.57;;
47167;SDS011;32931;47.778;17.806;2023-06-22T02:32:47;22.02;;;6.07;;
47167;SDS011;32931;47.778;17.806;2023-06-22T02:35:13;24.77;;;6.57;;
47167;SDS011;32931;47.778;17.806;2023-06-22T02:37:40;21.75;;;6.18;;
47167;SDS011;32931;47.778;17.806;2023-06-22T02:40:09;16.42;;;5.47;;
47167;SDS011;32931;47.778;17.806;2023-06-22T02:42:39;16.00;;;5.57;;
47167;SDS011;32931;47.778;17.806;2023-06-22T02:45:05;17.05;;;6.10;;
47167;SDS011;32931;47.778;17.806;2023-06-22T02:47:32;23.02;;;6.15;;
47167;SDS011;32931;47.778;17.806;2023-06-22T02:49:58;14.38;;;5.75;;
47167;SDS011;32931;47.778;17.806;2023-06-22T02:52:24;16.27;;;5.55;;
47167;SDS011;32931;47.778;17.806;2023-06-22T02:54:50;22.23;;;6.63;;
47167;SDS011;32931;47.778;17.806;2023-06-22T02:57:17;20.65;;;6.85;;
47167;SDS011;32931;47.778;17.806;2023-06-22T02:59:43;12.60;;;4.95;;
47167;SDS011;32931;47.778;17.806;2023-06-22T03:02:09;20.05;;;5.78;;
47167;SDS011;32931;47.778;17.806;2023-06-22T03:04:36;13.50;;;5.68;;
47167;SDS011;32931;47.778;17.806;2023-06-22T03:07:03;25.35;;;6.07;;
47167;SDS011;32931;47.778;17.806;2023-06-22T03:09:29;19.10;;;5.68;;
47167;SDS011;32931;47.778;17.806;2023-06-22T03:11:56;16.83;;;6.20;;
47167;SDS011;32931;47.778;17.806;2023-06-22T03:14:22;23.02;;;6.35;;
47167;SDS011;32931;47.778;17.806;2023-06-22T03:16:48;19.80;;;6.60;;
47167;SDS011;32931;47.778;17.806;2023-06-22T03:19:14;20.63;;;6.25;;
47167;SDS011;32931;47.778;17.806;2023-06-22T03:21:40;23.80;;;6.03;;
47167;SDS011;32931;47.778;17.806;2023-06-22T03:24:07;25.50;;;6.65;;
47167;SDS011;32931;47.778;17.806;2023-06-22T03:26:33;22.10;;;6.03;;
47167;SDS011;32931;47.778;17.806;2023-06-22T03:29:00;18.25;;;5.85;;
47167;SDS011;32931;47.778;17.806;2023-06-22T03:31:26;24.17;;;6.22;;
47167;SDS011;32931;47.778;17.806;2023-06-22T03:33:53;23.50;;;6.15;;
47167;SDS011;32931;47.778;17.806;2023-06-22T03:36:19;25.95;;;5.80;;
47167;SDS011;32931;47.778;17.806;2023-06-22T03:38:46;16.08;;;5.40;;
47167;SDS011;32931;47.778;17.806;2023-06-22T03:41:13;15.10;;;5.80;;
47167;SDS011;32931;47.778;17.806;2023-06-22T03:43:39;17.67;;;5.65;;
47167;SDS011;32931;47.778;17.806;2023-06-22T03:46:05;20.58;;;6.65;;
47167;SDS011;32931;47.778;17.806;2023-06-22T03:48:31;22.10;;;6.43;;
47167;SDS011;32931;47.778;17.806;2023-06-22T03:51:01;18.02;;;6.22;;
47167;SDS011;32931;47.778;17.806;2023-06-22T03:53:28;22.20;;;6.78;;
47167;SDS011;32931;47.778;17.806;2023-06-22T03:55:55;20.45;;;6.47;;
47167;SDS011;32931;47.778;17.806;2023-06-22T03:58:21;19.98;;;6.78;;
47167;SDS011;32931;47.778;17.806;2023-06-22T04:00:49;19.52;;;6.35;;
47167;SDS011;32931;47.778;17.806;2023-06-22T04:03:16;22.17;;;6.90;;
47167;SDS011;32931;47.778;17.806;2023-06-22T04:05:46;17.10;;;6.57;;
47167;SDS011;32931;47.778;17.806;2023-06-22T04:08:12;12.88;;;5.78;;
47167;SDS011;32931;47.778;17.806;2023-06-22T04:10:39;16.20;;;5.97;;
47167;SDS011;32931;47.778;17.806;2023-06-22T04:13:06;21.13;;;6.38;;
47167;SDS011;32931;47.778;17.806;2023-06-22T04:15:32;18.75;;;6.93;;
47167;SDS011;32931;47.778;17.806;2023-06-22T04:17:58;18.45;;;6.38;;
47167;SDS011;32931;47.778;17.806;2023-06-22T04:20:24;19.23;;;6.45;;
47167;SDS011;32931;47.778;17.806;2023-06-22T04:22:53;19.48;;;6.60;;
47167;SDS011;32931;47.778;17.806;2023-06-22T04:25:20;22.33;;;7.50;;
47167;SDS011;32931;47.778;17.806;2023-06-22T04:27:47;23.35;;;7.80;;
47167;SDS011;32931;47.778;17.806;2023-06-22T04:30:14;27.52;;;7.40;;
47167;SDS011;32931;47.778;17.806;2023-06-22T04:32:42;18.50;;;7.43;;
47167;SDS011;32931;47.778;17.806;2023-06-22T04:35:09;28.17;;;8.40;;
47167;SDS011;32931;47.778;17.806;2023-06-22T04:37:36;33.50;;;7.28;;
47167;SDS011;32931;47.778;17.806;2023-06-22T04:40:03;18.85;;;6.82;;
47167;SDS011;32931;47.778;17.806;2023-06-22T04:42:33;17.10;;;7.47;;
47167;SDS011;32931;47.778;17.806;2023-06-22T04:45:01;17.35;;;7.40;;
47167;SDS011;32931;47.778;17.806;2023-06-22T04:47:28;22.15;;;7.78;;
47167;SDS011;32931;47.778;17.806;2023-06-22T04:49:54;17.20;;;7.68;;
47167;SDS011;32931;47.778;17.806;2023-06-22T04:52:20;27.75;;;8.07;;
47167;SDS011;32931;47.778;17.806;2023-06-22T04:54:47;25.88;;;7.72;;
47167;SDS011;32931;47.778;17.806;2023-06-22T04:57:13;17.30;;;7.75;;
47167;SDS011;32931;47.778;17.806;2023-06-22T04:59:40;20.05;;;7.32;;
47167;SDS011;32931;47.778;17.806;2023-06-22T05:02:08;23.10;;;8.15;;
47167;SDS011;32931;47.778;17.806;2023-06-22T05:04:34;17.13;;;6.80;;
47167;SDS011;32931;47.778;17.806;2023-06-22T05:07:06;22.90;;;6.47;;
47167;SDS011;32931;47.778;17.806;2023-06-22T05:09:32;21.63;;;6.60;;
47167;SDS011;32931;47.778;17.806;2023-06-22T05:11:59;23.30;;;6.97;;
47167;SDS011;32931;47.778;17.806;2023-06-22T05:14:28;24.00;;;7.13;;
47167;SDS011;32931;47.778;17.806;2023-06-22T05:16:55;19.58;;;6.65;;
47167;SDS011;32931;47.778;17.806;2023-06-22T05:19:24;21.08;;;6.55;;
47167;SDS011;32931;47.778;17.806;2023-06-22T05:21:56;17.40;;;5.93;;
47167;SDS011;32931;47.778;17.806;2023-06-22T05:24:24;27.58;;;6.88;;
47167;SDS011;32931;47.778;17.806;2023-06-22T05:26:50;23.90;;;6.57;;
47167;SDS011;32931;47.778;17.806;2023-06-22T05:29:16;20.67;;;6.72;;
47167;SDS011;32931;47.778;17.806;2023-06-22T05:31:42;16.50;;;6.18;;
47167;SDS011;32931;47.778;17.806;2023-06-22T05:34:08;22.67;;;6.30;;
47167;SDS011;32931;47.778;17.806;2023-06-22T05:36:35;21.63;;;6.00;;
47167;SDS011;32931;47.778;17.806;2023-06-22T05:39:10;26.90;;;6.47;;
47167;SDS011;32931;47.778;17.806;2023-06-22T05:41:39;23.45;;;6.03;;
47167;SDS011;32931;47.778;17.806;2023-06-22T05:44:05;18.73;;;6.00;;
47167;SDS011;32931;47.778;17.806;2023-06-22T05:46:31;23.20;;;6.07;;
47167;SDS011;32931;47.778;17.806;2023-06-22T05:48:58;22.83;;;6.55;;
47167;SDS011;32931;47.778;17.806;2023-06-22T05:51:24;15.27;;;5.40;;
47167;SDS011;32931;47.778;17.806;2023-06-22T05:53:50;25.08;;;6.00;;
47167;SDS011;32931;47.778;17.806;2023-06-22T05:56:16;22.42;;;5.57;;
47167;SDS011;32931;47.778;17.806;2023-06-22T05:58:43;26.38;;;6.18;;
47167;SDS011;32931;47.778;17.806;2023-06-22T06:01:09;21.48;;;5.63;;
47167;SDS011;32931;47.778;17.806;2023-06-22T06:03:35;22.35;;;6.43;;
47167;SDS011;32931;47.778;17.806;2023-06-22T06:06:09;19.85;;;5.20;;
47167;SDS011;32931;47.778;17.806;2023-06-22T06:08:37;21.85;;;5.60;;
47167;SDS011;32931;47.778;17.806;2023-06-22T06:11:03;18.48;;;5.57;;
47167;SDS011;32931;47.778;17.806;2023-06-22T06:13:30;19.63;;;5.05;;
47167;SDS011;32931;47.778;17.806;2023-06-22T06:15:56;22.00;;;5.22;;
47167;SDS011;32931;47.778;17.806;2023-06-22T06:18:23;13.43;;;5.15;;
47167;SDS011;32931;47.778;17.806;2023-06-22T06:20:49;20.85;;;5.40;;
47167;SDS011;32931;47.778;17.806;2023-06-22T06:23:15;17.40;;;5.28;;
47167;SDS011;32931;47.778;17.806;2023-06-22T06:25:41;19.55;;;5.50;;
47167;SDS011;32931;47.778;17.806;2023-06-22T06:28:07;18.77;;;5.05;;
47167;SDS011;32931;47.778;17.806;2023-06-22T06:30:33;23.75;;;5.75;;
47167;SDS011;32931;47.778;17.806;2023-06-22T06:33:02;14.43;;;5.03;;
47167;SDS011;32931;47.778;17.806;2023-06-22T06:35:34;21.13;;;5.30;;
47167;SDS011;32931;47.778;17.806;2023-06-22T06:38:00;22.67;;;5.07;;
47167;SDS011;32931;47.778;17.806;2023-06-22T06:40:27;21.92;;;5.05;;
47167;SDS011;32931;47.778;17.806;2023-06-22T06:42:54;24.55;;;5.47;;
47167;SDS011;32931;47.778;17.806;2023-06-22T06:45:20;19.70;;;5.20;;
47167;SDS011;32931;47.778;17.806;2023-06-22T06:47:48;22.67;;;5.65;;
47167;SDS011;32931;47.778;17.806;2023-06-22T06:50:15;22.88;;;5.20;;
47167;SDS011;32931;47.778;17.806;2023-06-22T06:52:41;27.10;;;4.88;;
47167;SDS011;32931;47.778;17.806;2023-06-22T06:55:08;19.80;;;5.10;;
47167;SDS011;32931;47.778;17.806;2023-06-22T06:57:39;15.20;;;4.47;;
47167;SDS011;32931;47.778;17.806;2023-06-22T07:00:06;20.27;;;4.90;;
47167;SDS011;32931;47.778;17.806;2023-06-22T07:02:35;28.73;;;5.18;;
47167;SDS011;32931;47.778;17.806;2023-06-22T07:05:01;16.25;;;4.30;;
47167;SDS011;32931;47.778;17.806;2023-06-22T07:07:30;22.33;;;4.90;;
47167;SDS011;32931;47.778;17.806;2023-06-22T07:09:56;18.05;;;4.80;;
47167;SDS011;32931;47.778;17.806;2023-06-22T07:12:22;14.35;;;5.28;;
47167;SDS011;32931;47.778;17.806;2023-06-22T07:14:49;17.45;;;4.18;;
47167;SDS011;32931;47.778;17.806;2023-06-22T07:17:15;26.38;;;4.50;;
47167;SDS011;32931;47.778;17.806;2023-06-22T07:19:42;16.33;;;4.45;;
47167;SDS011;32931;47.778;17.806;2023-06-22T07:22:08;18.13;;;4.00;;
47167;SDS011;32931;47.778;17.806;2023-06-22T07:24:34;15.27;;;4.43;;
47167;SDS011;32931;47.778;17.806;2023-06-22T07:27:00;17.55;;;4.25;;
47167;SDS011;32931;47.778;17.806;2023-06-22T07:29:27;21.42;;;4.43;;
47167;SDS011;32931;47.778;17.806;2023-06-22T07:31:53;16.90;;;4.25;;
47167;SDS011;32931;47.778;17.806;2023-06-22T07:34:21;17.73;;;3.90;;
47167;SDS011;32931;47.778;17.806;2023-06-22T07:36:48;17.80;;;3.67;;
47167;SDS011;32931;47.778;17.806;2023-06-22T07:39:14;17.05;;;4.30;;
47167;SDS011;32931;47.778;17.806;2023-06-22T07:41:40;21.77;;;4.35;;
47167;SDS011;32931;47.778;17.806;2023-06-22T07:44:06;16.95;;;4.75;;
47167;SDS011;32931;47.778;17.806;2023-06-22T07:46:33;16.52;;;4.07;;
47167;SDS011;32931;47.778;17.806;2023-06-22T07:48:59;22.13;;;4.10;;
47167;SDS011;32931;47.778;17.806;2023-06-22T07:51:26;22.80;;;4.03;;
47167;SDS011;32931;47.778;17.806;2023-06-22T07:53:52;15.43;;;4.35;;
47167;SDS011;32931;47.778;17.806;2023-06-22T07:56:19;21.27;;;4.72;;
47167;SDS011;32931;47.778;17.806;2023-06-22T07:58:46;16.30;;;3.70;;
47167;SDS011;32931;47.778;17.806;2023-06-22T08:01:16;25.50;;;4.30;;
47167;SDS011;32931;47.778;17.806;2023-06-22T08:03:44;10.68;;;3.80;;
47167;SDS011;32931;47.778;17.806;2023-06-22T08:06:11;14.73;;;3.97;;
47167;SDS011;32931;47.778;17.806;2023-06-22T08:08:37;12.85;;;4.00;;
47167;SDS011;32931;47.778;17.806;2023-06-22T08:11:03;18.45;;;4.47;;
47167;SDS011;32931;47.778;17.806;2023-06-22T08:13:30;12.65;;;3.92;;
47167;SDS011;32931;47.778;17.806;2023-06-22T08:15:56;22.48;;;4.43;;
47167;SDS011;32931;47.778;17.806;2023-06-22T08:18:22;22.90;;;4.07;;
47167;SDS011;32931;47.778;17.806;2023-06-22T08:20:49;19.48;;;4.30;;
47167;SDS011;32931;47.778;17.806;2023-06-22T08:23:15;18.52;;;4.00;;
47167;SDS011;32931;47.778;17.806;2023-06-22T08:25:41;21.75;;;4.47;;
47167;SDS011;32931;47.778;17.806;2023-06-22T08:28:07;16.33;;;4.03;;
47167;SDS011;32931;47.778;17.806;2023-06-22T08:30:34;13.00;;;3.50;;
47167;SDS011;32931;47.778;17.806;2023-06-22T08:33:00;17.55;;;4.18;;
47167;SDS011;32931;47.778;17.806;2023-06-22T08:35:26;17.10;;;4.68;;
47167;SDS011;32931;47.778;17.806;2023-06-22T08:37:52;17.95;;;4.07;;
47167;SDS011;32931;47.778;17.806;2023-06-22T08:40:19;22.65;;;4.47;;
47167;SDS011;32931;47.778;17.806;2023-06-22T08:42:46;16.73;;;3.95;;
47167;SDS011;32931;47.778;17.806;2023-06-22T08:45:13;21.73;;;4.18;;
47167;SDS011;32931;47.778;17.806;2023-06-22T08:47:40;17.40;;;4.32;;
47167;SDS011;32931;47.778;17.806;2023-06-22T08:50:10;15.60;;;4.28;;
47167;SDS011;32931;47.778;17.806;2023-06-22T08:52:37;18.08;;;4.40;;
47167;SDS011;32931;47.778;17.806;2023-06-22T08:55:07;15.10;;;4.32;;
47167;SDS011;32931;47.778;17.806;2023-06-22T08:57:34;15.35;;;4.30;;
47167;SDS011;32931;47.778;17.806;2023-06-22T09:00:03;18.40;;;4.80;;
47167;SDS011;32931;47.778;17.806;2023-06-22T09:02:45;18.08;;;4.10;;
47167;SDS011;32931;47.778;17.806;2023-06-22T09:05:12;26.60;;;4.68;;
47167;SDS011;32931;47.778;17.806;2023-06-22T09:07:38;19.23;;;4.43;;
47167;SDS011;32931;47.778;17.806;2023-06-22T09:10:05;16.55;;;4.60;;
47167;SDS011;32931;47.778;17.806;2023-06-22T09:12:32;21.92;;;4.80;;
47167;SDS011;32931;47.778;17.806;2023-06-22T09:14:58;16.42;;;4.90;;
47167;SDS011;32931;47.778;17.806;2023-06-22T09:17:26;18.23;;;4.50;;
47167;SDS011;32931;47.778;17.806;2023-06-22T09:19:52;17.65;;;4.30;;
47167;SDS011;32931;47.778;17.806;2023-06-22T09:22:18;17.58;;;4.55;;
47167;SDS011;32931;47.778;17.806;2023-06-22T09:24:45;17.48;;;4.53;;
47167;SDS011;32931;47.778;17.806;2023-06-22T09:27:11;10.07;;;3.97;;
47167;SDS011;32931;47.778;17.806;2023-06-22T09:29:37;19.15;;;4.82;;
47167;SDS011;32931;47.778;17.806;2023-06-22T09:32:04;23.13;;;5.28;;
47167;SDS011;32931;47.778;17.806;2023-06-22T09:34:30;15.80;;;4.95;;
47167;SDS011;32931;47.778;17.806;2023-06-22T09:36:57;16.23;;;4.53;;
47167;SDS011;32931;47.778;17.806;2023-06-22T09:39:26;15.65;;;5.05;;
47167;SDS011;32931;47.778;17.806;2023-06-22T09:41:52;15.68;;;4.63;;
47167;SDS011;32931;47.778;17.806;2023-06-22T09:44:18;18.95;;;4.78;;
47167;SDS011;32931;47.778;17.806;2023-06-22T09:46:44;17.55;;;4.30;;
47167;SDS011;32931;47.778;17.806;2023-06-22T09:49:10;20.90;;;5.53;;
47167;SDS011;32931;47.778;17.806;2023-06-22T09:51:37;21.42;;;4.78;;
47167;SDS011;32931;47.778;17.806;2023-06-22T09:54:03;17.58;;;5.32;;
47167;SDS011;32931;47.778;17.806;2023-06-22T09:56:29;11.70;;;3.90;;
47167;SDS011;32931;47.778;17.806;2023-06-22T09:58:56;18.33;;;4.90;;
47167;SDS011;32931;47.778;17.806;2023-06-22T10:01:22;22.25;;;4.55;;
47167;SDS011;32931;47.778;17.806;2023-06-22T10:03:49;21.27;;;4.93;;
47167;SDS011;32931;47.778;17.806;2023-06-22T10:06:15;26.55;;;5.57;;
47167;SDS011;32931;47.778;17.806;2023-06-22T10:08:41;15.18;;;4.60;;
47167;SDS011;32931;47.778;17.806;2023-06-22T10:11:07;14.00;;;4.55;;
47167;SDS011;32931;47.778;17.806;2023-06-22T10:13:33;20.75;;;4.93;;
47167;SDS011;32931;47.778;17.806;2023-06-22T10:16:00;17.15;;;5.10;;
47167;SDS011;32931;47.778;17.806;2023-06-22T10:18:26;12.48;;;4.43;;
47167;SDS011;32931;47.778;17.806;2023-06-22T10:20:52;21.42;;;4.55;;
47167;SDS011;32931;47.778;17.806;2023-06-22T10:23:19;19.38;;;5.85;;
47167;SDS011;32931;47.778;17.806;2023-06-22T10:25:46;16.55;;;5.00;;
47167;SDS011;32931;47.778;17.806;2023-06-22T10:28:12;15.05;;;5.32;;
47167;SDS011;32931;47.778;17.806;2023-06-22T10:30:39;17.75;;;4.78;;
47167;SDS011;32931;47.778;17.806;2023-06-22T10:33:09;11.40;;;4.82;;
47167;SDS011;32931;47.778;17.806;2023-06-22T10:35:36;15.32;;;5.03;;
47167;SDS011;32931;47.778;17.806;2023-06-22T10:38:05;22.80;;;5.15;;
47167;SDS011;32931;47.778;17.806;2023-06-22T10:40:32;16.77;;;4.90;;
47167;SDS011;32931;47.778;17.806;2023-06-22T10:42:58;13.00;;;4.70;;
47167;SDS011;32931;47.778;17.806;2023-06-22T10:45:24;17.73;;;5.00;;
47167;SDS011;32931;47.778;17.806;2023-06-22T10:47:51;15.90;;;4.35;;
47167;SDS011;32931;47.778;17.806;2023-06-22T10:50:17;15.93;;;4.68;;
47167;SDS011;32931;47.778;17.806;2023-06-22T10:52:43;23.05;;;4.90;;
47167;SDS011;32931;47.778;17.806;2023-06-22T10:55:10;21.75;;;5.55;;
47167;SDS011;32931;47.778;17.806;2023-06-22T10:57:36;14.20;;;5.07;;
47167;SDS011;32931;47.778;17.806;2023-06-22T11:00:04;22.48;;;4.93;;
47167;SDS011;32931;47.778;17.806;2023-06-22T11:02:32;21.38;;;4.80;;
47167;SDS011;32931;47.778;17.806;2023-06-22T11:04:58;13.20;;;4.25;;
47167;SDS011;32931;47.778;17.806;2023-06-22T11:07:26;15.32;;;4.80;;
47167;SDS011;32931;47.778;17.806;2023-06-22T11:09:54;23.88;;;4.85;;
47167;SDS011;32931;47.778;17.806;2023-06-22T11:12:20;18.73;;;4.75;;
47167;SDS011;32931;47.778;17.806;2023-06-22T11:14:47;15.43;;;5.40;;
47167;SDS011;32931;47.778;17.806;2023-06-22T11:17:15;23.80;;;4.75;;
47167;SDS011;32931;47.778;17.806;2023-06-22T11:19:41;20.35;;;5.22;;
47167;SDS011;32931;47.778;17.806;2023-06-22T11:22:08;20.88;;;4.93;;
47167;SDS011;32931;47.778;17.806;2023-06-22T11:24:34;16.23;;;4.78;;
47167;SDS011;32931;47.778;17.806;2023-06-22T11:27:00;20.88;;;5.30;;
47167;SDS011;32931;47.778;17.806;2023-06-22T11:29:26;22.20;;;5.50;;
47167;SDS011;32931;47.778;17.806;2023-06-22T11:31:52;21.42;;;6.05;;
47167;SDS011;32931;47.778;17.806;2023-06-22T11:34:18;18.73;;;5.20;;
47167;SDS011;32931;47.778;17.806;2023-06-22T11:36:45;13.90;;;4.53;;
47167;SDS011;32931;47.778;17.806;2023-06-22T11:39:11;17.58;;;5.25;;
47167;SDS011;32931;47.778;17.806;2023-06-22T11:41:39;29.75;;;6.00;;
47167;SDS011;32931;47.778;17.806;2023-06-22T11:44:05;17.85;;;5.07;;
47167;SDS011;32931;47.778;17.806;2023-06-22T11:46:32;17.95;;;4.95;;
47167;SDS011;32931;47.778;17.806;2023-06-22T11:48:58;15.27;;;4.68;;
47167;SDS011;32931;47.778;17.806;2023-06-22T11:51:24;19.90;;;5.00;;
47167;SDS011;32931;47.778;17.806;2023-06-22T11:53:51;22.23;;;5.45;;
47167;SDS011;32931;47.778;17.806;2023-06-22T11:56:17;13.95;;;4.47;;
47167;SDS011;32931;47.778;17.806;2023-06-22T11:58:43;13.07;;;5.03;;
47167;SDS011;32931;47.778;17.806;2023-06-22T12:01:09;14.43;;;5.43;;
47167;SDS011;32931;47.778;17.806;2023-06-22T12:03:35;22.10;;;5.30;;
47167;SDS011;32931;47.778;17.806;2023-06-22T12:06:01;14.00;;;4.90;;
47167;SDS011;32931;47.778;17.806;2023-06-22T12:08:27;18.75;;;4.88;;
47167;SDS011;32931;47.778;17.806;2023-06-22T12:10:54;14.77;;;5.15;;
47167;SDS011;32931;47.778;17.806;2023-06-22T12:13:20;19.23;;;5.30;;
47167;SDS011;32931;47.778;17.806;2023-06-22T12:15:46;15.32;;;4.90;;
47167;SDS011;32931;47.778;17.806;2023-06-22T12:18:12;18.40;;;5.43;;
47167;SDS011;32931;47.778;17.806;2023-06-22T12:20:42;21.65;;;5.35;;
47167;SDS011;32931;47.778;17.806;2023-06-22T12:23:08;14.07;;;5.43;;
47167;SDS011;32931;47.778;17.806;2023-06-22T12:25:34;14.98;;;4.07;;
47167;SDS011;32931;47.778;17.806;2023-06-22T12:28:00;25.33;;;5.43;;
47167;SDS011;32931;47.778;17.806;2023-06-22T12:30:27;17.23;;;4.85;;
47167;SDS011;32931;47.778;17.806;2023-06-22T12:32:53;16.95;;;5.20;;
47167;SDS011;32931;47.778;17.806;2023-06-22T12:35:19;25.20;;;5.85;;
47167;SDS011;32931;47.778;17.806;2023-06-22T12:37:45;19.77;;;5.13;;
47167;SDS011;32931;47.778;17.806;2023-06-22T12:40:11;23.08;;;5.60;;
47167;SDS011;32931;47.778;17.806;2023-06-22T12:42:38;20.50;;;5.20;;
47167;SDS011;32931;47.778;17.806;2023-06-22T12:45:04;13.38;;;4.82;;
47167;SDS011;32931;47.778;17.806;2023-06-22T12:47:31;12.35;;;4.28;;
47167;SDS011;32931;47.778;17.806;2023-06-22T12:49:57;21.48;;;5.22;;
47167;SDS011;32931;47.778;17.806;2023-06-22T12:52:23;21.23;;;5.20;;
47167;SDS011;32931;47.778;17.806;2023-06-22T12:54:49;26.42;;;5.20;;
47167;SDS011;32931;47.778;17.806;2023-06-22T12:57:16;21.55;;;5.68;;
47167;SDS011;32931;47.778;17.806;2023-06-22T12:59:43;22.88;;;5.05;;
47167;SDS011;32931;47.778;17.806;2023-06-22T13:02:09;19.00;;;4.90;;
47167;SDS011;32931;47.778;17.806;2023-06-22T13:04:35;17.17;;;4.80;;
47167;SDS011;32931;47.778;17.806;2023-06-22T13:07:01;14.25;;;4.60;;
47167;SDS011;32931;47.778;17.806;2023-06-22T13:09:27;19.40;;;5.20;;
47167;SDS011;32931;47.778;17.806;2023-06-22T13:11:54;17.00;;;5.03;;
47167;SDS011;32931;47.778;17.806;2023-06-22T13:14:20;13.95;;;4.45;;
47167;SDS011;32931;47.778;17.806;2023-06-22T13:16:46;16.65;;;5.15;;
47167;SDS011;32931;47.778;17.806;2023-06-22T13:19:12;15.10;;;4.88;;
47167;SDS011;32931;47.778;17.806;2023-06-22T13:21:38;22.38;;;5.28;;
47167;SDS011;32931;47.778;17.806;2023-06-22T13:24:05;17.13;;;4.93;;
47167;SDS011;32931;47.778;17.806;2023-06-22T13:26:32;16.90;;;5.15;;
47167;SDS011;32931;47.778;17.806;2023-06-22T13:28:59;14.13;;;4.65;;
47167;SDS011;32931;47.778;17.806;2023-06-22T13:31:25;20.50;;;4.75;;
47167;SDS011;32931;47.778;17.806;2023-06-22T13:33:51;15.57;;;5.30;;
47167;SDS011;32931;47.778;17.806;2023-06-22T13:36:18;18.70;;;5.50;;
47167;SDS011;32931;47.778;17.806;2023-06-22T13:38:45;18.63;;;5.22;;
47167;SDS011;32931;47.778;17.806;2023-06-22T13:41:11;19.10;;;4.90;;
47167;SDS011;32931;47.778;17.806;2023-06-22T13:43:37;15.73;;;4.70;;
47167;SDS011;32931;47.778;17.806;2023-06-22T13:46:03;16.40;;;4.90;;
47167;SDS011;32931;47.778;17.806;2023-06-22T13:48:29;21.70;;;4.82;;
47167;SDS011;32931;47.778;17.806;2023-06-22T13:50:55;19.83;;;5.20;;
47167;SDS011;32931;47.778;17.806;2023-06-22T13:53:24;21.70;;;5.57;;
47167;SDS011;32931;47.778;17.806;2023-06-22T13:55:51;21.02;;;5.20;;
47167;SDS011;32931;47.778;17.806;2023-06-22T13:58:17;21.90;;;4.78;;
47167;SDS011;32931;47.778;17.806;2023-06-22T14:00:45;14.57;;;4.68;;
47167;SDS011;32931;47.778;17.806;2023-06-22T14:03:11;15.18;;;5.20;;
47167;SDS011;32931;47.778;17.806;2023-06-22T14:05:41;18.88;;;4.85;;
47167;SDS011;32931;47.778;17.806;2023-06-22T14:08:08;17.42;;;4.68;;
47167;SDS011;32931;47.778;17.806;2023-06-22T14:10:34;17.42;;;5.00;;
47167;SDS011;32931;47.778;17.806;2023-06-22T14:13:01;14.60;;;4.72;;
47167;SDS011;32931;47.778;17.806;2023-06-22T14:15:27;18.77;;;5.10;;
47167;SDS011;32931;47.778;17.806;2023-06-22T14:17:53;16.30;;;5.07;;
47167;SDS011;32931;47.778;17.806;2023-06-22T14:20:19;15.45;;;5.18;;
47167;SDS011;32931;47.778;17.806;2023-06-22T14:22:45;29.25;;;5.45;;
47167;SDS011;32931;47.778;17.806;2023-06-22T14:25:11;17.75;;;4.80;;